Floresville, TX

9:47 PM CST on March 03, 2015 (GMT -0600)
Kelly Air Force Base | Change Station
CLOSE
Current Station
Airport
Location: KellyUSA Airport,
Elevation: 689 ft
Nearby Weather Stations

Elev 689 ft 29.38 °N, 98.58 °W | Updated 6 minutes ago

Fog
Fog
57 °F
Feels Like 57 °F
N
2
Wind Variable Wind from North

Today
High -- | Low -- °F
--% Chance of Precip.
Yesterday
High -- | Low -- °F
Precip. -- in
6:56 AM 6:33 PM
Waxing Gibbous, 98% visible
Pressure 29.86 in
Visibility 2.0 miles
Clouds Mostly Cloudy 700 ft
Overcast 900 ft
Dew Point 57 °F
Humidity 100%
Rainfall 0.01 in
Snow Depth Not available.
UV 0 out of 12
Pollen 8.90 out of 12
Air Quality Not available.
Flu Activity Not available.
SPECI KSKF 040341Z 36002KT 2SM BR BKN007 OVC009 14/14 A2986 RMK AO2A

More Conditions Fewer Conditions

Pressure 29.86 in
Visibility 2.0 miles
Clouds Mostly Cloudy 700 ft
Overcast 900 ft
Dew Point 57 °F
Humidity 100%
Rainfall 0.01 in
Snow Depth Not available.
UV 0 out of 12
Pollen 8.90 out of 12
Air Quality Not available.
Flu Activity Not available.
SPECI KSKF 040341Z 36002KT 2SM BR BKN007 OVC009 14/14 A2986 RMK AO2A

More Conditions Fewer Conditions

Nowcast | as of 9:19 PM CST on March 3, 2015

Cloudy skies with very light patchy drizzle continues along and east of the I-35 corridor this evening. Visibilities are ranging from 3/4 to 5 miles between the I-35 and Highway 90 across the eastern half of south central Texas. The exception is San Antonio International Airport with 1/4 mile. Expect ceilings and visibilities to lower later tonight as areas of fog develop and spread over most areas.

×

10-Day Weather Forecast

Almanac

Astronomy

Mar. 03, 2015 Rise Set
Actual Time
Civil Twilight
Nautical Twilight
Astronomical Twilight
Moon
Length of Visible Light
Length of Day
Tomorrow will be .
, % of the Moon is Illuminated

Today's Extremes

State Highs State Lows

Community

WunderPhotos

Upload Photos

1,802,379 photos uploaded!

WunderBlogs® & News

Nearby

Air Quality

  Air Quality AQ Index Pollutant
Not available.

Snow Depth

Station Depth Elevation

Earthquake Activity

City Distance Mag. Time & Date
Minimum magnitude displayed is 2.5.

Coastal Water Temperatures

Place Temperature

Nearby Weather Stations